Avalon, California
Current Conditions -  °F | °C
As of 1:44 AM on Saturday 20 Dec 2014 (Local Time) from KAVX Reporting Station
Broken Clouds Broken Clouds  
Wind Chill: 51°   Ceiling: 1100
Heat Index: 51°   Visibility: 10mi
Dew Point: 50°   Wind: 7mph
Humidity: 96%   Direction: 300°WNW
Pressure: 30.16"   Gusts: NA
Location:  33.34°N, 118.33°W
Report Text: KAVX 200944Z AUTO 30006KT 10SM FEW005 BKN011 11/10 A3016 RMK AO2 CIG 007V012 T01060100
Loading
Personal Weather Stations






























Interactive Weather Map New forecast layout! Learn more

10-Day Weather Forecast

Advertisements
Track Severe Weather on mobile